Advance, MO

6:54 PM CDT on September 18, 2014 (GMT -0500)
Cape Girardeau Regional | Change Station
CLOSE
Current Station
Airport
Location: Cape Girardeau,
Elevation: 341 ft
Nearby Weather Stations

Elev 341 ft 37.23 °N, 89.57 °W | Updated 1 hour ago

Overcast
Overcast
72 °F
Feels Like 72 °F
N
5
Wind Variable Wind from ENE

Today
High -- | Low -- °F
--% Chance of Precip.
Yesterday
High -- | Low -- °F
Precip. -- in
6:44 AM 7:02 PM
Waning Crescent, 23% visible
Pressure 29.98 in
Visibility 10.0 miles
Clouds Overcast 4400 ft
Dew Point 60 °F
Humidity 66%
Rainfall 0.00 in
Snow Depth Not available.
UV 0 out of 12
Pollen 7.50 out of 12
Air Quality Not available.
Flu Activity Not available.
METAR KCGI 182253Z AUTO 07004KT 10SM OVC044 22/16 A2999 RMK AO2 SLP151 T02220156

More Conditions Fewer Conditions

Pressure 29.98 in
Visibility 10.0 miles
Clouds Overcast 4400 ft
Dew Point 60 °F
Humidity 66%
Rainfall 0.00 in
Snow Depth Not available.
UV 0 out of 12
Pollen 7.50 out of 12
Air Quality Not available.
Flu Activity Not available.
METAR KCGI 182253Z AUTO 07004KT 10SM OVC044 22/16 A2999 RMK AO2 SLP151 T02220156

More Conditions Fewer Conditions

10-Day Weather Forecast

Almanac

Astronomy

Sep. 18, 2014 Rise Set
Actual Time 6:44 AM CDT 7:02 PM CDT
Civil Twilight 6:18 AM CDT 7:28 PM CDT
Nautical Twilight 5:47 AM CDT 7:59 PM CDT
Astronomical Twilight 5:16 AM CDT 8:30 PM CDT
Moon 1:41 AM CDT 3:48 PM CDT
Length of Visible Light 13h 10m
Length of Day
12h 18m
Tomorrow will be 2m 20s shorter.
Waning Crescent, 23% of the Moon is Illuminated
Today
Waning Crescent
Sep 24
New
Oct 1
First Quarter
Oct 8
Full
Oct 15
Last Quarter

Today's Extremes

State Highs State Lows

Community

WunderPhotos

Upload Photos

1,754,489 photos uploaded!

WunderBlogs® & News

Nearby

Snow Depth

Station Depth Elevation
No new snow has been reported.

Earthquake Activity

City Distance Mag. Time & Date
No recent earthquake activity has been reported nearby.
Minimum magnitude displayed is 2.5.

Coastal Water Temperatures

Place Temperature
No Stations Reporting

Nearby Weather Stations